Time;durP1;ratioP1;P1;durP2;ratioP2;P2;SDS_P1;SDS_P2;PMS_P1;PMS_P2;Temp;Humidity;BMP_temperature;BMP_pressure;BME280_temperature;BME280_humidity;BME280_pressure;Samples;Min_cycle;Max_cycle;Signal;HPM_P1;HPM_P2
2023/05/26 00:00:03;;;;;;;;;;;20.30;58.50;;;;;;5056387;28;20015;-71
2023/05/26 00:02:30;;;;;;;;;;;20.20;58.50;;;;;;5056441;28;20114;-71
2023/05/26 00:04:58;;;;;;;;;;;20.20;58.60;;;;;;5061889;28;19987;-70
2023/05/26 00:07:24;;;;;;;;;;;20.10;58.80;;;;;;5061041;28;19988;-71
2023/05/26 00:09:51;;;;;;;;;;;20.10;58.80;;;;;;5063458;28;19975;-71
2023/05/26 00:12:20;;;;;;;;;;;20.10;59.00;;;;;;5075482;28;20024;-71
2023/05/26 00:14:48;;;;;;;;;;;20.00;58.90;;;;;;5062378;28;19979;-70
2023/05/26 00:17:16;;;;;;;;;;;20.00;59.00;;;;;;5057103;28;20496;-70
2023/05/26 00:19:43;;;;;;;;;;;20.00;59.10;;;;;;5058489;28;19986;-72
2023/05/26 00:22:10;;;;;;;;;;;20.00;59.20;;;;;;5060820;28;19979;-70
2023/05/26 00:24:37;;;;;;;;;;;19.90;59.30;;;;;;5063142;28;19980;-70
2023/05/26 00:27:04;;;;;;;;;;;19.90;59.30;;;;;;5056782;28;20040;-70
2023/05/26 00:29:31;;;;;;;;;;;19.80;59.30;;;;;;5059528;28;19990;-71
2023/05/26 00:31:58;;;;;;;;;;;19.80;59.40;;;;;;5057287;28;19996;-71
2023/05/26 00:34:24;;;;;;;;;;;19.80;59.50;;;;;;5062348;28;20574;-70
2023/05/26 00:36:51;;;;;;;;;;;19.70;59.60;;;;;;5059261;28;19984;-70
2023/05/26 00:39:18;;;;;;;;;;;19.70;59.70;;;;;;5058681;28;19995;-71
2023/05/26 00:41:44;;;;;;;;;;;19.70;59.70;;;;;;5053635;28;19986;-71
2023/05/26 00:44:11;;;;;;;;;;;19.70;59.80;;;;;;5052877;28;19979;-70
2023/05/26 00:46:38;;;;;;;;;;;19.60;59.90;;;;;;5059004;28;19995;-71
2023/05/26 00:49:05;;;;;;;;;;;19.60;60.10;;;;;;5057794;28;20077;-71
2023/05/26 00:51:32;;;;;;;;;;;19.50;60.00;;;;;;5059582;28;20396;-71
2023/05/26 00:53:59;;;;;;;;;;;19.50;60.00;;;;;;5055926;28;20093;-71
2023/05/26 00:56:27;;;;;;;;;;;19.50;60.10;;;;;;5057929;28;20664;-71
2023/05/26 00:58:54;;;;;;;;;;;19.40;60.10;;;;;;5065397;28;20493;-70
2023/05/26 01:01:21;;;;;;;;;;;19.40;60.40;;;;;;5055432;28;20067;-69
2023/05/26 01:03:50;;;;;;;;;;;19.40;60.50;;;;;;5068139;28;19979;-71
2023/05/26 01:06:17;;;;;;;;;;;19.30;60.60;;;;;;5059912;28;19983;-71
2023/05/26 01:08:43;;;;;;;;;;;19.30;60.50;;;;;;5059731;28;19995;-71
2023/05/26 01:11:14;;;;;;;;;;;19.30;60.60;;;;;;5066584;28;20026;-71
2023/05/26 01:13:45;;;;;;;;;;;19.20;60.60;;;;;;5062910;28;20562;-71
2023/05/26 01:16:12;;;;;;;;;;;19.20;60.80;;;;;;5065553;28;20500;-71
2023/05/26 01:18:42;;;;;;;;;;;19.20;60.90;;;;;;5064630;28;19995;-71
2023/05/26 01:21:12;;;;;;;;;;;19.20;61.00;;;;;;5062318;28;19979;-70
2023/05/26 01:23:58;;;;;;;;;;;19.10;60.90;;;;;;5062566;28;20077;-70
2023/05/26 01:26:42;;;;;;;;;;;19.10;61.00;;;;;;5042020;28;20089;-71
2023/05/26 01:29:11;;;;;;;;;;;19.00;61.30;;;;;;5047252;28;19998;-71
2023/05/26 01:31:39;;;;;;;;;;;19.00;61.40;;;;;;5054008;28;19999;-71
2023/05/26 01:34:05;;;;;;;;;;;19.00;61.40;;;;;;5058425;28;20316;-71
2023/05/26 01:36:32;;;;;;;;;;;19.00;61.40;;;;;;5059901;28;19983;-71
2023/05/26 01:38:59;;;;;;;;;;;18.90;61.50;;;;;;5063375;28;19999;-71
2023/05/26 01:41:28;;;;;;;;;;;18.90;61.60;;;;;;5063020;28;19980;-71
2023/05/26 01:43:59;;;;;;;;;;;18.90;61.70;;;;;;5065419;28;19980;-70
2023/05/26 01:46:30;;;;;;;;;;;18.80;61.80;;;;;;5061770;28;20002;-71
2023/05/26 01:48:58;;;;;;;;;;;18.80;61.80;;;;;;5059134;28;19995;-70
2023/05/26 01:51:25;;;;;;;;;;;18.80;62.10;;;;;;5062215;28;20315;-70
2023/05/26 01:53:53;;;;;;;;;;;18.80;62.10;;;;;;5057833;28;20372;-71
2023/05/26 01:56:21;;;;;;;;;;;18.70;62.10;;;;;;5054156;28;19975;-71
2023/05/26 01:58:48;;;;;;;;;;;18.70;62.00;;;;;;5056494;28;20030;-71
2023/05/26 02:01:15;;;;;;;;;;;18.70;62.10;;;;;;5051410;28;19995;-71
2023/05/26 02:03:43;;;;;;;;;;;18.60;62.20;;;;;;5055930;28;20346;-70
2023/05/26 02:06:10;;;;;;;;;;;18.60;62.20;;;;;;5057222;28;20036;-70
2023/05/26 02:08:37;;;;;;;;;;;18.60;62.30;;;;;;5058407;28;20110;-71
2023/05/26 02:11:03;;;;;;;;;;;18.60;62.40;;;;;;5059923;28;20054;-71
2023/05/26 02:13:30;;;;;;;;;;;18.60;62.70;;;;;;5055579;28;19990;-71
2023/05/26 02:15:56;;;;;;;;;;;18.50;62.60;;;;;;5058151;28;19996;-71
2023/05/26 02:18:24;;;;;;;;;;;18.50;62.60;;;;;;5060182;28;19995;-71
2023/05/26 02:20:52;;;;;;;;;;;18.50;62.60;;;;;;5053938;28;19980;-70
2023/05/26 02:23:19;;;;;;;;;;;18.40;62.60;;;;;;5058885;28;19983;-71
2023/05/26 02:25:45;;;;;;;;;;;18.40;62.70;;;;;;5061315;28;19980;-71
2023/05/26 02:28:12;;;;;;;;;;;18.40;62.60;;;;;;5056306;28;20657;-71
2023/05/26 02:30:39;;;;;;;;;;;18.40;62.50;;;;;;5056590;28;20373;-71
2023/05/26 02:33:05;;;;;;;;;;;18.30;62.50;;;;;;5064355;28;19975;-71
2023/05/26 02:35:32;;;;;;;;;;;18.30;62.80;;;;;;5054335;28;19979;-70
2023/05/26 02:38:00;;;;;;;;;;;18.30;63.00;;;;;;5058733;28;19995;-71
2023/05/26 02:40:27;;;;;;;;;;;18.20;63.00;;;;;;5061516;28;20453;-71
2023/05/26 02:42:53;;;;;;;;;;;18.20;63.10;;;;;;5062251;28;20105;-71
2023/05/26 02:45:20;;;;;;;;;;;18.20;63.10;;;;;;5057495;28;19990;-71
2023/05/26 02:47:46;;;;;;;;;;;18.20;63.20;;;;;;5055742;28;20002;-71
2023/05/26 02:50:13;;;;;;;;;;;18.10;63.20;;;;;;5056362;28;19991;-71
2023/05/26 02:52:39;;;;;;;;;;;18.10;63.20;;;;;;5058779;28;19985;-71
2023/05/26 02:55:10;;;;;;;;;;;18.10;63.20;;;;;;5057186;28;19991;-71
2023/05/26 02:57:36;;;;;;;;;;;18.00;63.20;;;;;;5061159;28;20567;-71
2023/05/26 03:00:04;;;;;;;;;;;18.00;63.30;;;;;;5054147;28;20489;-71
2023/05/26 03:02:30;;;;;;;;;;;18.00;63.40;;;;;;5052781;28;19995;-71
2023/05/26 03:04:57;;;;;;;;;;;18.00;63.30;;;;;;5057965;28;19980;-70
2023/05/26 03:07:24;;;;;;;;;;;18.00;63.40;;;;;;5054041;28;20002;-70
2023/05/26 03:09:50;;;;;;;;;;;17.90;63.40;;;;;;5058971;28;19987;-72
2023/05/26 03:12:18;;;;;;;;;;;17.90;63.40;;;;;;5050068;28;19983;-71
2023/05/26 03:14:45;;;;;;;;;;;17.90;63.30;;;;;;5056801;28;19979;-71
2023/05/26 03:17:11;;;;;;;;;;;17.80;63.40;;;;;;5060429;28;19995;-70
2023/05/26 03:19:38;;;;;;;;;;;17.80;63.40;;;;;;5059725;28;20081;-71
2023/05/26 03:22:05;;;;;;;;;;;17.80;63.50;;;;;;5062582;28;19986;-71
2023/05/26 03:24:32;;;;;;;;;;;17.80;63.50;;;;;;5066492;28;20591;-70
2023/05/26 03:26:58;;;;;;;;;;;17.80;63.50;;;;;;5058295;28;19983;-71
2023/05/26 03:29:27;;;;;;;;;;;17.70;63.50;;;;;;5054967;28;19975;-71
2023/05/26 03:31:53;;;;;;;;;;;17.70;63.60;;;;;;5053972;28;19992;-70
2023/05/26 03:34:20;;;;;;;;;;;17.70;63.70;;;;;;5056043;28;19975;-71
2023/05/26 03:36:48;;;;;;;;;;;17.70;63.70;;;;;;5053559;28;20070;-70
2023/05/26 03:39:15;;;;;;;;;;;17.60;63.80;;;;;;5061523;28;19996;-70
2023/05/26 03:41:42;;;;;;;;;;;17.60;63.70;;;;;;5060994;28;19991;-71
2023/05/26 03:44:08;;;;;;;;;;;17.60;63.90;;;;;;5053815;28;20072;-71
2023/05/26 03:46:36;;;;;;;;;;;17.60;63.90;;;;;;5063309;28;20086;-70
2023/05/26 03:49:03;;;;;;;;;;;17.60;63.90;;;;;;5069027;28;19995;-70
2023/05/26 03:51:30;;;;;;;;;;;17.60;64.00;;;;;;5060711;28;19984;-71
2023/05/26 03:53:57;;;;;;;;;;;17.50;63.90;;;;;;5060857;28;19983;-70
2023/05/26 03:56:23;;;;;;;;;;;17.50;64.00;;;;;;5062801;28;19998;-71
2023/05/26 03:58:50;;;;;;;;;;;17.50;64.00;;;;;;5061664;28;20026;-72
2023/05/26 04:01:19;;;;;;;;;;;17.40;64.00;;;;;;5054547;28;20940;-70
2023/05/26 04:03:47;;;;;;;;;;;17.40;64.00;;;;;;5064835;28;19979;-70
2023/05/26 04:06:13;;;;;;;;;;;17.40;64.00;;;;;;5056535;28;19979;-70
2023/05/26 04:08:40;;;;;;;;;;;17.40;64.00;;;;;;5063018;28;20006;-70
2023/05/26 04:11:06;;;;;;;;;;;17.30;64.10;;;;;;5059429;28;20441;-71
2023/05/26 04:13:33;;;;;;;;;;;17.30;64.10;;;;;;5063153;28;19979;-70
2023/05/26 04:15:59;;;;;;;;;;;17.30;64.10;;;;;;5060392;28;20453;-70
2023/05/26 04:18:26;;;;;;;;;;;17.30;64.20;;;;;;5063732;28;19991;-71
2023/05/26 04:20:54;;;;;;;;;;;17.30;64.20;;;;;;5061665;28;20035;-70
2023/05/26 04:23:20;;;;;;;;;;;17.20;64.20;;;;;;5062024;28;20400;-71
2023/05/26 04:25:48;;;;;;;;;;;17.20;64.20;;;;;;5063493;28;19979;-71
2023/05/26 04:28:14;;;;;;;;;;;17.20;64.30;;;;;;5061629;28;20414;-70
2023/05/26 04:30:42;;;;;;;;;;;17.20;64.30;;;;;;5058263;28;20605;-71
2023/05/26 04:33:09;;;;;;;;;;;17.20;64.40;;;;;;5062448;28;19979;-70
2023/05/26 04:35:36;;;;;;;;;;;17.10;64.50;;;;;;5063722;28;19975;-71
2023/05/26 04:38:04;;;;;;;;;;;17.10;64.60;;;;;;5055008;28;20003;-71
2023/05/26 04:40:32;;;;;;;;;;;17.10;64.60;;;;;;5065228;28;20178;-70
2023/05/26 04:42:58;;;;;;;;;;;17.10;64.70;;;;;;5055605;28;19980;-71
2023/05/26 04:45:25;;;;;;;;;;;17.00;64.70;;;;;;5058893;28;19975;-70
2023/05/26 04:47:52;;;;;;;;;;;17.00;64.70;;;;;;5059036;28;19996;-70
2023/05/26 04:50:22;;;;;;;;;;;17.00;64.80;;;;;;5058560;28;19976;-71
2023/05/26 04:52:49;;;;;;;;;;;17.00;64.90;;;;;;5063143;28;20684;-70
2023/05/26 04:55:17;;;;;;;;;;;17.00;64.90;;;;;;5064203;28;19979;-70
2023/05/26 04:57:44;;;;;;;;;;;16.90;64.90;;;;;;5062080;28;19992;-71
2023/05/26 05:00:12;;;;;;;;;;;16.90;65.00;;;;;;5065391;28;20082;-71
2023/05/26 05:02:38;;;;;;;;;;;16.90;65.10;;;;;;5062118;28;19979;-71
2023/05/26 05:05:05;;;;;;;;;;;16.90;65.10;;;;;;5057991;28;19975;-71
2023/05/26 05:07:32;;;;;;;;;;;16.90;65.20;;;;;;5063263;28;20003;-70
2023/05/26 05:09:59;;;;;;;;;;;16.80;65.20;;;;;;5055336;28;19980;-70
2023/05/26 05:12:27;;;;;;;;;;;16.80;65.20;;;;;;5055755;28;20330;-70
2023/05/26 05:14:53;;;;;;;;;;;16.80;65.20;;;;;;5056088;28;19983;-70
2023/05/26 05:17:20;;;;;;;;;;;16.80;65.30;;;;;;5056440;28;20635;-71
2023/05/26 05:19:46;;;;;;;;;;;16.80;65.30;;;;;;5061907;28;19995;-71
2023/05/26 05:22:13;;;;;;;;;;;16.70;65.20;;;;;;5060959;28;19975;-70
2023/05/26 05:24:40;;;;;;;;;;;16.80;65.40;;;;;;5059186;28;20098;-70
2023/05/26 05:27:06;;;;;;;;;;;16.70;65.30;;;;;;5060778;28;19979;-71
2023/05/26 05:29:34;;;;;;;;;;;16.70;65.50;;;;;;5063452;28;19979;-71
2023/05/26 05:32:01;;;;;;;;;;;16.70;65.50;;;;;;5059072;28;19992;-70
2023/05/26 05:34:27;;;;;;;;;;;16.70;65.50;;;;;;5057545;28;19982;-71
2023/05/26 05:36:54;;;;;;;;;;;16.70;65.50;;;;;;4997055;28;1739060;-71
2023/05/26 05:39:20;;;;;;;;;;;16.70;65.70;;;;;;5065847;28;20461;-69
2023/05/26 05:41:47;;;;;;;;;;;16.40;68.40;;;;;;5060658;28;19986;-71
2023/05/26 05:44:13;;;;;;;;;;;16.20;69.30;;;;;;5062176;28;19928;-71
2023/05/26 05:46:41;;;;;;;;;;;16.20;69.50;;;;;;5063539;28;19928;-71
2023/05/26 05:49:08;;;;;;;;;;;16.10;69.40;;;;;;5057901;28;19929;-71
2023/05/26 05:51:35;;;;;;;;;;;16.10;69.30;;;;;;5057994;28;19936;-71
2023/05/26 05:54:02;;;;;;;;;;;16.20;69.30;;;;;;5065556;28;19935;-73
2023/05/26 05:56:28;;;;;;;;;;;16.20;69.00;;;;;;5071665;28;19943;-71
2023/05/26 05:58:55;;;;;;;;;;;16.20;68.80;;;;;;5071832;28;19929;-71
2023/05/26 06:01:21;;;;;;;;;;;16.30;68.70;;;;;;5066688;28;19929;-71
2023/05/26 06:03:49;;;;;;;;;;;16.30;68.50;;;;;;5065660;28;19928;-71
2023/05/26 06:06:16;;;;;;;;;;;16.40;68.40;;;;;;5056697;28;19935;-71
2023/05/26 06:08:42;;;;;;;;;;;16.40;68.30;;;;;;5071458;28;19928;-72
2023/05/26 06:11:09;;;;;;;;;;;16.40;68.20;;;;;;5063687;28;19958;-71
2023/05/26 06:13:35;;;;;;;;;;;16.40;68.10;;;;;;5075375;28;19959;-73
2023/05/26 06:16:02;;;;;;;;;;;16.40;68.10;;;;;;5064854;28;19929;-71
2023/05/26 06:18:29;;;;;;;;;;;16.40;67.90;;;;;;5065234;28;20006;-71
2023/05/26 06:20:56;;;;;;;;;;;16.50;67.90;;;;;;5056795;28;20674;-71
2023/05/26 06:23:23;;;;;;;;;;;16.40;67.80;;;;;;5061130;28;19929;-70
2023/05/26 06:25:50;;;;;;;;;;;16.50;67.80;;;;;;5066941;28;19929;-73
2023/05/26 06:28:16;;;;;;;;;;;16.50;67.80;;;;;;5064702;28;19929;-71
2023/05/26 06:30:43;;;;;;;;;;;16.50;67.70;;;;;;5063580;28;19935;-71
2023/05/26 06:33:09;;;;;;;;;;;16.50;67.70;;;;;;5065646;28;20154;-71
2023/05/26 06:35:36;;;;;;;;;;;16.50;67.70;;;;;;5059887;28;19928;-71
2023/05/26 06:38:04;;;;;;;;;;;16.50;67.60;;;;;;5063835;28;19928;-71
2023/05/26 06:40:30;;;;;;;;;;;16.50;67.70;;;;;;5061707;28;19940;-71
2023/05/26 06:42:57;;;;;;;;;;;16.50;67.60;;;;;;5058421;28;19928;-72
2023/05/26 06:45:23;;;;;;;;;;;16.50;67.60;;;;;;5061449;28;19932;-72
2023/05/26 06:47:50;;;;;;;;;;;16.60;67.70;;;;;;5058600;28;20045;-73
2023/05/26 06:50:16;;;;;;;;;;;16.60;67.70;;;;;;5055508;28;20351;-71
2023/05/26 06:52:43;;;;;;;;;;;16.60;67.90;;;;;;5070367;28;19935;-71
2023/05/26 06:55:11;;;;;;;;;;;16.60;67.90;;;;;;5063603;28;19928;-72
2023/05/26 06:57:38;;;;;;;;;;;16.60;67.80;;;;;;5059921;28;19944;-71
2023/05/26 07:00:05;;;;;;;;;;;16.60;67.90;;;;;;5055198;28;19929;-71
2023/05/26 07:02:31;;;;;;;;;;;16.70;68.00;;;;;;5063752;28;19955;-72
2023/05/26 07:04:58;;;;;;;;;;;16.70;67.90;;;;;;5049101;28;19932;-76
2023/05/26 07:07:25;;;;;;;;;;;16.70;68.10;;;;;;5062343;28;19939;-75
2023/05/26 07:09:51;;;;;;;;;;;16.70;68.20;;;;;;5052994;28;19929;-76
2023/05/26 07:12:19;;;;;;;;;;;16.70;68.20;;;;;;5054204;28;19929;-76
2023/05/26 07:14:47;;;;;;;;;;;16.70;68.30;;;;;;5062639;28;20001;-76
2023/05/26 07:17:14;;;;;;;;;;;16.70;68.90;;;;;;5057364;28;19936;-76
2023/05/26 07:19:40;;;;;;;;;;;16.70;68.20;;;;;;5060900;28;19974;-76
2023/05/26 07:22:07;;;;;;;;;;;16.70;68.20;;;;;;5054936;28;19936;-76
2023/05/26 07:24:33;;;;;;;;;;;16.80;68.30;;;;;;5047466;28;19931;-76
2023/05/26 07:27:00;;;;;;;;;;;16.80;68.40;;;;;;5055608;28;19996;-76
2023/05/26 07:29:28;;;;;;;;;;;16.80;68.40;;;;;;5049942;28;19936;-77
2023/05/26 07:31:54;;;;;;;;;;;16.80;68.40;;;;;;5056592;28;19928;-77
2023/05/26 07:34:21;;;;;;;;;;;16.80;68.40;;;;;;5068384;28;19932;-76
2023/05/26 07:36:48;;;;;;;;;;;16.80;68.50;;;;;;5056682;28;20215;-76
2023/05/26 07:39:14;;;;;;;;;;;16.80;68.40;;;;;;5061001;28;19939;-76
2023/05/26 07:41:41;;;;;;;;;;;16.90;68.60;;;;;;5062946;28;20641;-76
2023/05/26 07:44:07;;;;;;;;;;;16.90;68.50;;;;;;5062814;28;19932;-76
2023/05/26 07:46:35;;;;;;;;;;;16.90;68.50;;;;;;5056545;28;19961;-76
2023/05/26 07:49:01;;;;;;;;;;;16.90;68.40;;;;;;5062123;28;19931;-76
2023/05/26 07:51:28;;;;;;;;;;;17.00;68.50;;;;;;5058123;28;19933;-76
2023/05/26 07:53:55;;;;;;;;;;;17.00;68.50;;;;;;5057241;28;19932;-76
2023/05/26 07:56:21;;;;;;;;;;;17.00;68.50;;;;;;5063340;28;19958;-76
2023/05/26 07:58:48;;;;;;;;;;;17.00;68.40;;;;;;5049299;28;19929;-77
2023/05/26 08:01:14;;;;;;;;;;;17.00;68.50;;;;;;5052237;28;19928;-76
2023/05/26 08:03:42;;;;;;;;;;;17.00;68.40;;;;;;5055784;28;20346;-76
2023/05/26 08:06:09;;;;;;;;;;;17.10;68.40;;;;;;5057067;28;19935;-76
2023/05/26 08:08:35;;;;;;;;;;;17.10;68.40;;;;;;5064461;28;19932;-76
2023/05/26 08:11:02;;;;;;;;;;;17.10;68.40;;;;;;5049642;28;19936;-76
2023/05/26 08:13:28;;;;;;;;;;;17.10;68.40;;;;;;5054282;28;19969;-76
2023/05/26 08:15:55;;;;;;;;;;;17.20;68.70;;;;;;5054452;28;19929;-76
2023/05/26 08:18:21;;;;;;;;;;;17.20;68.80;;;;;;5061644;28;19947;-77
2023/05/26 08:20:52;;;;;;;;;;;17.20;68.70;;;;;;5056454;28;20046;-77
2023/05/26 08:23:18;;;;;;;;;;;17.20;68.70;;;;;;5055850;28;19925;-76
2023/05/26 08:25:45;;;;;;;;;;;17.30;68.80;;;;;;5067236;28;19932;-77
2023/05/26 08:28:12;;;;;;;;;;;17.30;68.60;;;;;;5063821;28;19931;-77
2023/05/26 08:30:38;;;;;;;;;;;17.30;68.40;;;;;;5062745;28;19931;-77
2023/05/26 08:33:05;;;;;;;;;;;17.40;68.40;;;;;;5064655;28;20002;-76
2023/05/26 08:35:32;;;;;;;;;;;17.40;68.30;;;;;;5051851;28;19959;-77
2023/05/26 08:37:59;;;;;;;;;;;17.40;68.40;;;;;;5066490;28;20376;-77
2023/05/26 08:40:26;;;;;;;;;;;17.40;68.40;;;;;;5066114;28;20770;-77
2023/05/26 08:42:56;;;;;;;;;;;17.40;68.40;;;;;;5067223;28;19931;-77
2023/05/26 08:45:23;;;;;;;;;;;17.50;68.50;;;;;;5055598;28;20585;-77
2023/05/26 08:47:50;;;;;;;;;;;17.50;68.40;;;;;;5055910;28;19924;-76
2023/05/26 08:50:17;;;;;;;;;;;17.50;68.30;;;;;;5057983;28;19925;-76
2023/05/26 08:52:43;;;;;;;;;;;17.50;68.00;;;;;;5067379;28;19924;-77
2023/05/26 08:55:11;;;;;;;;;;;17.60;67.90;;;;;;5062555;28;20233;-76
2023/05/26 08:57:40;;;;;;;;;;;17.60;67.80;;;;;;5061607;28;21187;-76
2023/05/26 09:00:07;;;;;;;;;;;17.70;68.00;;;;;;5067262;28;19935;-76
2023/05/26 09:02:34;;;;;;;;;;;17.70;68.00;;;;;;5072472;28;19928;-76
2023/05/26 09:05:01;;;;;;;;;;;17.80;67.90;;;;;;5057379;28;19940;-76
2023/05/26 09:07:27;;;;;;;;;;;17.80;67.70;;;;;;5058683;28;19936;-76
2023/05/26 09:09:54;;;;;;;;;;;17.80;67.60;;;;;;5062269;28;19935;-76
2023/05/26 09:12:22;;;;;;;;;;;17.80;67.50;;;;;;5059491;28;19933;-77
2023/05/26 09:14:48;;;;;;;;;;;17.90;67.40;;;;;;5061158;28;20007;-76
2023/05/26 09:17:15;;;;;;;;;;;17.90;67.50;;;;;;5064620;28;19932;-76
2023/05/26 09:19:41;;;;;;;;;;;17.90;67.60;;;;;;5059176;28;20341;-76
2023/05/26 09:22:08;;;;;;;;;;;18.00;67.40;;;;;;5061040;28;19935;-77
2023/05/26 09:24:46;;;;;;;;;;;18.00;67.20;;;;;;5066005;28;20501;-77
2023/05/26 09:27:19;;;;;;;;;;;18.10;66.90;;;;;;5056983;28;19928;-76
2023/05/26 09:29:51;;;;;;;;;;;18.10;66.60;;;;;;5057450;28;20386;-76
2023/05/26 09:32:18;;;;;;;;;;;18.20;66.70;;;;;;5057031;28;19928;-77
2023/05/26 09:34:44;;;;;;;;;;;18.20;66.60;;;;;;5050497;28;19924;-76
2023/05/26 09:37:11;;;;;;;;;;;18.30;66.50;;;;;;5050171;28;20398;-76
2023/05/26 09:39:38;;;;;;;;;;;18.30;66.30;;;;;;5055717;28;19929;-76
2023/05/26 09:42:06;;;;;;;;;;;18.40;66.10;;;;;;5054551;28;20294;-76
2023/05/26 09:44:33;;;;;;;;;;;18.40;65.90;;;;;;5058510;28;20022;-77
2023/05/26 09:47:00;;;;;;;;;;;18.50;65.80;;;;;;5051112;28;19929;-77
2023/05/26 09:49:27;;;;;;;;;;;18.50;65.70;;;;;;5063058;28;20043;-77
2023/05/26 09:51:54;;;;;;;;;;;18.60;65.60;;;;;;5051609;28;19929;-76
2023/05/26 09:54:21;;;;;;;;;;;18.70;65.50;;;;;;5060643;28;19932;-77
2023/05/26 09:56:51;;;;;;;;;;;18.70;65.30;;;;;;5054230;28;19951;-76
2023/05/26 09:59:19;;;;;;;;;;;18.80;65.40;;;;;;5062102;28;19928;-76
2023/05/26 10:01:46;;;;;;;;;;;18.90;65.20;;;;;;5060053;28;19927;-76
2023/05/26 10:04:15;;;;;;;;;;;19.00;65.00;;;;;;5062546;28;19929;-77
2023/05/26 10:06:42;;;;;;;;;;;19.00;64.80;;;;;;5057375;28;19936;-76
2023/05/26 10:09:09;;;;;;;;;;;19.10;64.00;;;;;;5054457;28;19928;-77
2023/05/26 10:11:37;;;;;;;;;;;19.20;63.90;;;;;;5057001;28;19933;-77
2023/05/26 10:14:06;;;;;;;;;;;19.30;63.90;;;;;;5053936;28;20410;-77
2023/05/26 10:16:33;;;;;;;;;;;19.30;63.30;;;;;;5055532;28;19929;-77
2023/05/26 10:19:00;;;;;;;;;;;19.40;63.10;;;;;;5053301;28;19933;-76
2023/05/26 10:21:30;;;;;;;;;;;19.40;62.90;;;;;;5057159;28;20475;-77
2023/05/26 10:24:00;;;;;;;;;;;19.50;62.90;;;;;;5051623;28;19936;-76
2023/05/26 10:26:29;;;;;;;;;;;19.60;62.90;;;;;;5054231;28;19932;-78
2023/05/26 10:28:57;;;;;;;;;;;19.70;62.70;;;;;;5050635;28;19976;-77
2023/05/26 10:31:31;;;;;;;;;;;19.80;62.40;;;;;;5056560;28;19935;-76
2023/05/26 10:33:57;;;;;;;;;;;19.80;62.20;;;;;;5052589;28;19936;-77
2023/05/26 10:36:24;;;;;;;;;;;19.90;62.10;;;;;;5050350;28;19929;-77
2023/05/26 10:38:53;;;;;;;;;;;20.00;62.10;;;;;;5060698;28;19939;-77
2023/05/26 10:41:32;;;;;;;;;;;20.00;61.80;;;;;;5055272;28;19935;-77
2023/05/26 10:43:59;;;;;;;;;;;20.10;61.80;;;;;;5051439;28;19935;-77
2023/05/26 10:46:36;;;;;;;;;;;20.20;61.60;;;;;;5055171;28;19959;-75
2023/05/26 10:49:02;;;;;;;;;;;20.20;61.60;;;;;;5052649;28;19940;-77
2023/05/26 10:51:29;;;;;;;;;;;20.30;62.20;;;;;;5059230;28;19928;-76
2023/05/26 10:53:58;;;;;;;;;;;20.40;61.30;;;;;;5053079;28;20416;-78
2023/05/26 10:56:26;;;;;;;;;;;20.50;61.00;;;;;;5057628;28;19935;-79
2023/05/26 10:58:57;;;;;;;;;;;20.50;60.60;;;;;;5057935;28;20046;-77
2023/05/26 11:01:28;;;;;;;;;;;20.60;60.20;;;;;;5053804;28;19928;-77
2023/05/26 11:04:08;;;;;;;;;;;20.70;60.00;;;;;;5054813;28;20453;-77
2023/05/26 11:06:36;;;;;;;;;;;20.70;59.90;;;;;;5057063;28;19972;-77
2023/05/26 11:09:08;;;;;;;;;;;20.80;59.80;;;;;;5060374;28;19932;-78
2023/05/26 11:11:38;;;;;;;;;;;20.90;59.80;;;;;;5056333;28;19932;-77
2023/05/26 11:14:05;;;;;;;;;;;20.90;59.80;;;;;;5063476;28;19928;-77
2023/05/26 11:16:34;;;;;;;;;;;21.00;59.80;;;;;;5055490;28;19939;-77
2023/05/26 11:19:02;;;;;;;;;;;21.10;59.60;;;;;;5054620;28;20019;-76
2023/05/26 11:21:31;;;;;;;;;;;21.10;59.40;;;;;;5059532;28;19932;-76
2023/05/26 11:23:59;;;;;;;;;;;21.20;58.80;;;;;;5056488;28;19940;-77
2023/05/26 11:26:30;;;;;;;;;;;21.30;58.90;;;;;;5053385;28;19929;-77
2023/05/26 11:28:57;;;;;;;;;;;21.30;58.80;;;;;;5051903;28;20047;-76
2023/05/26 11:31:26;;;;;;;;;;;21.40;58.70;;;;;;5066399;28;19928;-76
2023/05/26 11:33:53;;;;;;;;;;;21.40;58.60;;;;;;5047446;28;19989;-77
2023/05/26 11:36:20;;;;;;;;;;;21.50;58.60;;;;;;5050208;28;19929;-78
2023/05/26 11:38:47;;;;;;;;;;;21.50;58.40;;;;;;5059525;28;19928;-78
2023/05/26 11:41:15;;;;;;;;;;;21.60;58.20;;;;;;5058841;28;19964;-77
2023/05/26 11:43:45;;;;;;;;;;;21.60;58.20;;;;;;5061838;28;19929;-78
2023/05/26 11:46:12;;;;;;;;;;;21.70;58.00;;;;;;5057448;28;19932;-80
2023/05/26 11:48:40;;;;;;;;;;;21.80;58.00;;;;;;5055648;28;19928;-79
2023/05/26 11:51:08;;;;;;;;;;;21.80;57.70;;;;;;5057708;28;19928;-79
2023/05/26 11:53:35;;;;;;;;;;;21.90;57.70;;;;;;5055590;28;20043;-79
2023/05/26 11:56:06;;;;;;;;;;;22.00;57.60;;;;;;5052390;28;19951;-78
2023/05/26 11:58:33;;;;;;;;;;;22.00;57.50;;;;;;5059450;28;20620;-77
2023/05/26 12:01:02;;;;;;;;;;;22.10;57.50;;;;;;5057898;28;19964;-78
2023/05/26 12:03:30;;;;;;;;;;;22.10;57.50;;;;;;5056135;28;19935;-78
2023/05/26 12:06:11;;;;;;;;;;;22.10;57.30;;;;;;5058179;28;19929;-76
2023/05/26 12:08:44;;;;;;;;;;;22.20;57.10;;;;;;5066527;28;20280;-77
2023/05/26 12:11:17;;;;;;;;;;;22.20;57.20;;;;;;5056582;28;19929;-77
2023/05/26 12:13:44;;;;;;;;;;;22.20;56.90;;;;;;5065636;28;19936;-77
2023/05/26 12:16:28;;;;;;;;;;;22.30;55.60;;;;;;5065505;28;19928;-77
2023/05/26 12:18:57;;;;;;;;;;;22.40;55.40;;;;;;5064048;28;19935;-78
2023/05/26 12:21:25;;;;;;;;;;;22.40;55.40;;;;;;5055451;28;19933;-77
2023/05/26 12:23:51;;;;;;;;;;;22.50;55.70;;;;;;5050499;28;19924;-78
2023/05/26 12:26:18;;;;;;;;;;;22.50;56.00;;;;;;5050491;28;19928;-77
2023/05/26 12:28:45;;;;;;;;;;;22.60;55.70;;;;;;5057743;28;19935;-77
2023/05/26 12:31:11;;;;;;;;;;;22.60;55.50;;;;;;5061202;28;19947;-78
2023/05/26 12:33:38;;;;;;;;;;;22.60;55.40;;;;;;5060940;28;19928;-77
2023/05/26 12:36:06;;;;;;;;;;;22.70;55.50;;;;;;5049084;28;19935;-77
2023/05/26 12:38:40;;;;;;;;;;;22.70;55.10;;;;;;5055559;28;20432;-78
2023/05/26 12:41:07;;;;;;;;;;;22.80;55.00;;;;;;5054887;28;19936;-78
2023/05/26 12:43:33;;;;;;;;;;;22.80;54.80;;;;;;5053012;28;19936;-77
2023/05/26 12:46:02;;;;;;;;;;;22.90;55.00;;;;;;5064916;28;20449;-77
2023/05/26 12:48:29;;;;;;;;;;;22.90;55.20;;;;;;5061059;28;19936;-78
2023/05/26 12:50:55;;;;;;;;;;;23.00;55.40;;;;;;5055578;28;19929;-77
2023/05/26 12:53:24;;;;;;;;;;;23.00;55.20;;;;;;5059441;28;19965;-78
2023/05/26 12:55:50;;;;;;;;;;;23.00;54.90;;;;;;5061417;28;20663;-77
2023/05/26 12:58:17;;;;;;;;;;;23.10;54.80;;;;;;5060527;28;19928;-78
2023/05/26 13:00:44;;;;;;;;;;;23.10;54.90;;;;;;5065917;28;19932;-77
2023/05/26 13:03:10;;;;;;;;;;;23.10;55.00;;;;;;5056354;28;19951;-77
2023/05/26 13:05:37;;;;;;;;;;;23.20;55.20;;;;;;5060475;28;19929;-78
2023/05/26 13:08:03;;;;;;;;;;;23.20;54.50;;;;;;5060753;28;19936;-78
2023/05/26 13:10:31;;;;;;;;;;;23.20;54.40;;;;;;5064371;28;19936;-78
2023/05/26 13:12:58;;;;;;;;;;;23.30;54.20;;;;;;5060709;28;19935;-78
2023/05/26 13:15:25;;;;;;;;;;;23.40;54.00;;;;;;5058796;28;20043;-77
2023/05/26 13:17:52;;;;;;;;;;;23.50;54.10;;;;;;5061729;28;20023;-77
2023/05/26 13:20:19;;;;;;;;;;;23.50;54.10;;;;;;5056363;28;19928;-77
2023/05/26 13:22:45;;;;;;;;;;;23.50;53.40;;;;;;5062383;28;20306;-77
2023/05/26 13:25:12;;;;;;;;;;;23.60;53.60;;;;;;5065637;28;20567;-78
2023/05/26 13:27:40;;;;;;;;;;;23.60;53.70;;;;;;5054439;28;19929;-77
2023/05/26 13:30:07;;;;;;;;;;;23.70;53.40;;;;;;5053677;28;19924;-78
2023/05/26 13:32:36;;;;;;;;;;;23.80;53.10;;;;;;5069624;28;19940;-78
2023/05/26 13:35:02;;;;;;;;;;;23.80;52.20;;;;;;5064805;28;19928;-78
2023/05/26 13:37:29;;;;;;;;;;;23.80;52.70;;;;;;5067149;28;19935;-78
2023/05/26 13:39:55;;;;;;;;;;;23.90;51.90;;;;;;5066295;28;19928;-75
2023/05/26 13:42:22;;;;;;;;;;;23.90;51.90;;;;;;5057467;28;19936;-76
2023/05/26 13:44:50;;;;;;;;;;;24.00;51.80;;;;;;5059881;28;19928;-75
2023/05/26 13:47:16;;;;;;;;;;;24.10;51.80;;;;;;5053265;28;20591;-76
2023/05/26 13:49:43;;;;;;;;;;;24.10;51.80;;;;;;5051997;28;19929;-75
2023/05/26 13:52:09;;;;;;;;;;;24.20;52.00;;;;;;5060618;28;20479;-72
2023/05/26 13:54:36;;;;;;;;;;;24.30;52.00;;;;;;5064084;28;19933;-73
2023/05/26 13:57:03;;;;;;;;;;;24.30;51.90;;;;;;5071178;28;19932;-72
2023/05/26 13:59:31;;;;;;;;;;;24.40;51.80;;;;;;5054940;28;19939;-72
2023/05/26 14:01:59;;;;;;;;;;;24.50;52.00;;;;;;5071293;28;19928;-74
2023/05/26 14:04:26;;;;;;;;;;;24.50;52.10;;;;;;5061022;28;19928;-74
2023/05/26 14:06:53;;;;;;;;;;;24.50;52.00;;;;;;5054977;28;19933;-73
2023/05/26 14:09:19;;;;;;;;;;;24.60;51.40;;;;;;5056935;28;19932;-73
2023/05/26 14:11:46;;;;;;;;;;;24.60;50.70;;;;;;5055962;28;19925;-72
2023/05/26 14:14:12;;;;;;;;;;;24.70;50.90;;;;;;5061896;28;20420;-72
2023/05/26 14:16:39;;;;;;;;;;;24.70;50.80;;;;;;5063278;28;19936;-72